createdAt,value
2023-02-27T00:01:35.416Z,100412.28
2023-02-27T00:04:44.495Z,100414.56
2023-02-27T00:07:51.980Z,100412.38
2023-02-27T00:11:00.662Z,100418.75
2023-02-27T00:14:07.626Z,100426.25
2023-02-27T00:17:16.156Z,100428.53
2023-02-27T00:20:24.020Z,100443.59
2023-02-27T00:23:33.244Z,100434.91
2023-02-27T00:26:40.624Z,100435.53
2023-02-27T00:29:50.796Z,100443.13
2023-02-27T00:33:00.369Z,100441.84
2023-02-27T00:36:09.085Z,100442.56
2023-02-27T00:39:16.857Z,100454.78
2023-02-27T00:42:26.385Z,100464.75
2023-02-27T00:45:32.093Z,100460.66
2023-02-27T00:48:42.758Z,100457.75
2023-02-27T00:51:52.522Z,100452.62
2023-02-27T00:55:02.579Z,100465.06
2023-02-27T00:58:12.894Z,100463.87
2023-02-27T01:01:22.959Z,100478.69
2023-02-27T01:04:31.802Z,100475.53
2023-02-27T01:07:42.501Z,100481.03
2023-02-27T01:10:49.865Z,100482.09
2023-02-27T01:14:01.098Z,100486.25
2023-02-27T01:17:11.414Z,100484.94
2023-02-27T01:20:20.948Z,100488.31
2023-02-27T01:23:29.420Z,100488.56
2023-02-27T01:26:38.004Z,100492.81
2023-02-27T01:29:45.445Z,100499.00
2023-02-27T01:32:54.324Z,100492.56
2023-02-27T01:36:01.634Z,100495.16
2023-02-27T01:39:09.758Z,100494.47
2023-02-27T01:42:21.473Z,100504.59
2023-02-27T01:45:28.987Z,100493.41
2023-02-27T01:48:42.375Z,100494.87
2023-02-27T01:51:51.500Z,100501.75
2023-02-27T01:55:01.511Z,100493.91
2023-02-27T01:58:13.217Z,100495.06
2023-02-27T02:01:24.989Z,100490.63
2023-02-27T02:04:36.738Z,100494.87
2023-02-27T02:07:46.383Z,100501.59
2023-02-27T02:10:56.776Z,100507.72
2023-02-27T02:14:05.545Z,100508.56
2023-02-27T02:17:24.896Z,100511.81
2023-02-27T02:20:41.024Z,100522.78
2023-02-27T02:24:10.899Z,100525.41
2023-02-27T02:27:31.584Z,100527.91
2023-02-27T02:30:51.323Z,100545.03
2023-02-27T02:34:19.393Z,100535.16
2023-02-27T02:37:52.313Z,100547.25
2023-02-27T02:41:04.090Z,100550.94
2023-02-27T02:44:30.489Z,100548.44
2023-02-27T02:47:47.265Z,100553.66
2023-02-27T02:51:09.432Z,100546.53
2023-02-27T02:54:22.510Z,100541.78
2023-02-27T02:57:34.892Z,100561.50
2023-02-27T03:00:57.974Z,100558.97
2023-02-27T03:04:16.534Z,100552.59
2023-02-27T03:07:42.475Z,100559.91
2023-02-27T03:10:49.483Z,100557.66
2023-02-27T03:14:07.380Z,100563.69
2023-02-27T03:17:28.682Z,100563.78
2023-02-27T03:20:44.043Z,100568.59
2023-02-27T03:23:57.148Z,100569.97
2023-02-27T03:27:08.866Z,100580.72
2023-02-27T03:30:21.211Z,100587.38
2023-02-27T03:33:36.253Z,100582.69
2023-02-27T03:36:49.542Z,100586.06
2023-02-27T03:40:11.107Z,100590.53
2023-02-27T03:43:28.808Z,100593.69
2023-02-27T03:46:41.603Z,100593.06
2023-02-27T03:49:57.653Z,100599.66
2023-02-27T03:53:14.412Z,100600.88
2023-02-27T03:56:28.962Z,100603.37
2023-02-27T03:59:41.330Z,100604.75
2023-02-27T04:02:53.390Z,100605.59
2023-02-27T04:06:27.500Z,100610.09
2023-02-27T04:09:45.773Z,100616.25
2023-02-27T04:13:01.844Z,100610.19
2023-02-27T04:16:33.859Z,100614.28
2023-02-27T04:19:43.891Z,100613.34
2023-02-27T04:22:59.534Z,100617.81
2023-02-27T04:26:09.671Z,100616.56
2023-02-27T04:29:27.571Z,100612.72
2023-02-27T04:32:41.661Z,100619.59
2023-02-27T04:35:51.158Z,100630.88
2023-02-27T04:39:19.429Z,100628.56
2023-02-27T04:42:29.023Z,100629.41
2023-02-27T04:45:39.744Z,100631.78
2023-02-27T04:48:56.145Z,100641.69
2023-02-27T04:52:04.505Z,100635.66
2023-02-27T04:55:24.656Z,100636.47
2023-02-27T04:58:53.019Z,100633.16
2023-02-27T05:02:07.710Z,100645.66
2023-02-27T05:05:21.383Z,100644.97
2023-02-27T05:08:34.998Z,100644.44
2023-02-27T05:11:55.546Z,100645.88
2023-02-27T05:15:21.510Z,100650.03
2023-02-27T05:18:30.439Z,100664.47
2023-02-27T05:21:39.694Z,100668.84
2023-02-27T05:24:43.679Z,100675.75
2023-02-27T05:27:51.662Z,100674.28
2023-02-27T05:31:06.357Z,100670.00
2023-02-27T05:34:39.288Z,100674.28
2023-02-27T05:37:53.655Z,100682.19
2023-02-27T05:41:18.878Z,100693.50
2023-02-27T05:44:28.791Z,100696.28
2023-02-27T05:47:35.599Z,100699.09
2023-02-27T05:50:43.378Z,100695.75
2023-02-27T05:53:55.812Z,100706.38
2023-02-27T05:57:04.159Z,100706.28
2023-02-27T06:00:16.503Z,100714.47
2023-02-27T06:03:22.012Z,100721.66
2023-02-27T06:06:29.002Z,100723.72
2023-02-27T06:09:34.723Z,100733.81
2023-02-27T06:12:38.897Z,100736.22
2023-02-27T06:15:43.877Z,100738.44
2023-02-27T06:18:49.720Z,100743.38
2023-02-27T06:21:55.365Z,100747.94
2023-02-27T06:24:59.869Z,100747.56
2023-02-27T06:28:04.545Z,100761.44
2023-02-27T06:31:08.663Z,100766.00
2023-02-27T06:34:13.344Z,100770.75
2023-02-27T06:37:19.781Z,100777.94
2023-02-27T06:40:24.419Z,100798.97
2023-02-27T06:43:28.729Z,100798.97
2023-02-27T06:46:33.096Z,100802.47
2023-02-27T06:49:36.556Z,100810.63
2023-02-27T06:52:40.356Z,100813.31
2023-02-27T06:55:43.437Z,100814.81
2023-02-27T06:58:47.221Z,100820.25
2023-02-27T07:01:50.572Z,100823.22
2023-02-27T07:04:54.355Z,100836.75
2023-02-27T07:07:58.789Z,100827.44
2023-02-27T07:11:02.953Z,100837.53
2023-02-27T07:14:10.481Z,100832.28
2023-02-27T07:17:14.971Z,100837.78
2023-02-27T07:20:18.773Z,100828.78
2023-02-27T07:23:23.159Z,100835.25
2023-02-27T07:26:28.184Z,100831.41
2023-02-27T07:29:34.158Z,100839.66
2023-02-27T07:32:39.040Z,100833.06
2023-02-27T07:35:45.831Z,100838.06
2023-02-27T07:38:50.022Z,100848.00
2023-02-27T07:41:54.730Z,100850.87
2023-02-27T07:45:00.182Z,100853.19
2023-02-27T07:48:08.042Z,100858.09
2023-02-27T07:51:12.654Z,100862.31
2023-02-27T07:54:17.182Z,100867.19
2023-02-27T07:57:21.058Z,100869.03
2023-02-27T08:00:25.913Z,100865.78
2023-02-27T08:03:30.876Z,100860.09
2023-02-27T08:06:35.770Z,100867.25
2023-02-27T08:09:39.976Z,100874.09
2023-02-27T08:12:45.299Z,100869.91
2023-02-27T08:15:49.753Z,100863.69
2023-02-27T08:18:54.811Z,100876.66
2023-02-27T08:22:01.426Z,100885.81
2023-02-27T08:25:08.227Z,100883.22
2023-02-27T08:28:12.600Z,100879.75
2023-02-27T08:31:15.806Z,100892.22
2023-02-27T08:34:19.697Z,100897.47
2023-02-27T08:37:22.972Z,100893.59
2023-02-27T08:40:27.650Z,100906.47
2023-02-27T08:43:30.816Z,100913.69
2023-02-27T08:46:34.866Z,100913.88
2023-02-27T08:49:38.848Z,100923.84
2023-02-27T08:52:42.977Z,100917.47
2023-02-27T08:55:50.018Z,100925.34
2023-02-27T08:58:56.788Z,100926.28
2023-02-27T09:02:01.218Z,100933.69
2023-02-27T09:05:07.054Z,100949.19
2023-02-27T09:08:11.934Z,100943.25
2023-02-27T09:11:16.778Z,100939.69
2023-02-27T09:14:21.624Z,100938.41
2023-02-27T09:17:25.828Z,100948.53
2023-02-27T09:20:31.918Z,100939.28
2023-02-27T09:23:38.515Z,100940.41
2023-02-27T09:26:46.110Z,100940.41
2023-02-27T09:29:55.917Z,100945.75
2023-02-27T09:33:06.335Z,100948.91
2023-02-27T09:36:11.352Z,100950.13
2023-02-27T09:39:14.585Z,100946.66
2023-02-27T09:42:27.952Z,100947.53
2023-02-27T09:45:33.722Z,100953.47
2023-02-27T09:48:51.204Z,100952.47
2023-02-27T09:52:00.003Z,100956.19
2023-02-27T09:55:06.803Z,100953.31
2023-02-27T09:58:29.200Z,100948.41
2023-02-27T10:01:37.936Z,100955.44
2023-02-27T10:05:05.031Z,100951.47
2023-02-27T10:08:24.188Z,100955.09
2023-02-27T10:11:35.855Z,100962.81
2023-02-27T10:14:52.861Z,100963.59
2023-02-27T10:18:10.501Z,100969.47
2023-02-27T10:21:32.128Z,100958.47
2023-02-27T10:24:50.059Z,100961.53
2023-02-27T10:27:57.869Z,100965.00
2023-02-27T10:31:03.325Z,100963.03
2023-02-27T10:34:08.690Z,100962.50
2023-02-27T10:37:16.749Z,100960.09
2023-02-27T10:40:21.680Z,100959.63
2023-02-27T10:43:26.457Z,100963.56
2023-02-27T10:46:32.395Z,100959.69
2023-02-27T10:49:38.896Z,100959.50
2023-02-27T10:52:54.430Z,100951.28
2023-02-27T10:55:59.321Z,100949.28
2023-02-27T10:59:05.702Z,100948.50
2023-02-27T11:02:17.231Z,100958.87
2023-02-27T11:05:34.797Z,100955.81
2023-02-27T11:08:39.030Z,100956.16
2023-02-27T11:11:43.196Z,100960.22
2023-02-27T11:14:50.940Z,100955.06
2023-02-27T11:17:55.857Z,100958.87
2023-02-27T11:21:19.122Z,100963.97
2023-02-27T11:24:25.923Z,100956.97
2023-02-27T11:27:31.319Z,100967.19
2023-02-27T11:30:35.933Z,100965.09
2023-02-27T11:33:42.316Z,100964.38
2023-02-27T11:36:50.289Z,100967.69
2023-02-27T11:40:15.752Z,100968.47
2023-02-27T11:43:22.219Z,100966.66
2023-02-27T11:46:47.286Z,100972.28
2023-02-27T11:49:58.934Z,100963.69
2023-02-27T11:53:19.020Z,100972.97
2023-02-27T11:56:25.968Z,100972.03
2023-02-27T11:59:30.133Z,100963.03
2023-02-27T12:02:47.299Z,100954.66
2023-02-27T12:05:53.853Z,100963.91
2023-02-27T12:09:04.002Z,100960.53
2023-02-27T12:12:20.306Z,100964.19
2023-02-27T12:15:30.290Z,100962.44
2023-02-27T12:18:38.606Z,100960.97
2023-02-27T12:21:43.268Z,100974.16
2023-02-27T12:24:58.671Z,100973.09
2023-02-27T12:28:12.028Z,100974.34
2023-02-27T12:31:20.165Z,100973.88
2023-02-27T12:34:32.477Z,100976.97
2023-02-27T12:37:38.392Z,100980.47
2023-02-27T12:41:03.546Z,100977.84
2023-02-27T12:44:28.368Z,100980.88
2023-02-27T12:47:41.347Z,100985.69
2023-02-27T12:50:51.264Z,100974.16
2023-02-27T12:54:13.599Z,100991.19
2023-02-27T12:57:36.943Z,100991.72
2023-02-27T13:01:00.362Z,100996.19
2023-02-27T13:04:14.972Z,100990.94
2023-02-27T13:07:25.724Z,100992.19
2023-02-27T13:10:36.785Z,100997.34
2023-02-27T13:13:43.443Z,100997.84
2023-02-27T13:16:54.309Z,100999.84
2023-02-27T13:20:18.696Z,100994.16
2023-02-27T13:23:32.437Z,100992.72
2023-02-27T13:26:39.146Z,100997.72
2023-02-27T13:29:47.804Z,100989.84
2023-02-27T13:33:04.762Z,101001.12
2023-02-27T13:36:24.284Z,100997.72
2023-02-27T13:39:40.303Z,100995.38
2023-02-27T13:42:47.484Z,101005.59
2023-02-27T13:45:52.511Z,100998.75
2023-02-27T13:49:28.233Z,101002.44
2023-02-27T13:52:38.945Z,101004.75
2023-02-27T13:55:43.954Z,100996.19
2023-02-27T13:58:48.652Z,101012.50
2023-02-27T14:02:00.818Z,101006.94
2023-02-27T14:05:06.973Z,101002.31
2023-02-27T14:08:11.388Z,101002.66
2023-02-27T14:11:16.734Z,100989.37
2023-02-27T14:14:40.593Z,101000.84
2023-02-27T14:17:45.978Z,101005.69
2023-02-27T14:20:51.218Z,100990.47
2023-02-27T14:23:55.458Z,100998.56
2023-02-27T14:27:02.420Z,100989.34
2023-02-27T14:30:12.378Z,100999.59
2023-02-27T14:33:33.682Z,100999.84
2023-02-27T14:36:55.594Z,101001.84
2023-02-27T14:40:03.323Z,101006.59
2023-02-27T14:43:16.479Z,100999.28
2023-02-27T14:46:29.693Z,100997.56
2023-02-27T14:49:34.845Z,100998.94
2023-02-27T14:52:42.692Z,100999.09
2023-02-27T14:55:54.885Z,101003.00
2023-02-27T14:59:07.462Z,101007.47
2023-02-27T15:02:21.727Z,101006.22
2023-02-27T15:05:29.086Z,101014.44
2023-02-27T15:08:39.443Z,101012.69
2023-02-27T15:11:57.466Z,101019.72
2023-02-27T15:15:08.209Z,101024.91
2023-02-27T15:18:14.547Z,101026.09
2023-02-27T15:21:20.688Z,101040.25
2023-02-27T15:24:37.669Z,101038.97
2023-02-27T15:27:49.581Z,101047.44
2023-02-27T15:30:56.986Z,101049.97
2023-02-27T15:34:04.944Z,101043.25
2023-02-27T15:37:17.676Z,101054.81
2023-02-27T15:40:24.741Z,101062.66
2023-02-27T15:43:32.771Z,101067.94
2023-02-27T15:46:38.353Z,101073.97
2023-02-27T15:49:42.860Z,101075.03
2023-02-27T15:52:59.917Z,101079.78
2023-02-27T15:56:07.005Z,101089.31
2023-02-27T15:59:16.859Z,101093.97
2023-02-27T16:02:27.257Z,101091.34
2023-02-27T16:05:36.256Z,101094.91
2023-02-27T16:08:43.891Z,101098.47
2023-02-27T16:12:10.862Z,101099.19
2023-02-27T16:15:32.901Z,101110.31
2023-02-27T16:18:48.494Z,101113.94
2023-02-27T16:22:08.408Z,101110.63
2023-02-27T16:25:20.080Z,101118.87
2023-02-27T16:28:23.858Z,101130.16
2023-02-27T16:31:40.839Z,101128.69
2023-02-27T16:34:47.614Z,101135.44
2023-02-27T16:37:54.698Z,101151.13
2023-02-27T16:41:03.725Z,101149.56
2023-02-27T16:44:11.193Z,101152.19
2023-02-27T16:47:18.698Z,101156.56
2023-02-27T16:50:31.752Z,101162.81
2023-02-27T16:53:40.471Z,101170.13
2023-02-27T16:56:51.208Z,101182.19
2023-02-27T17:00:00.577Z,101172.19
2023-02-27T17:03:10.396Z,101173.41
2023-02-27T17:06:20.091Z,101187.75
2023-02-27T17:09:29.708Z,101191.88
2023-02-27T17:12:34.444Z,101194.62
2023-02-27T17:15:41.757Z,101202.56
2023-02-27T17:18:46.932Z,101200.31
2023-02-27T17:21:52.503Z,101215.16
2023-02-27T17:24:57.554Z,101212.28
2023-02-27T17:28:02.897Z,101205.66
2023-02-27T17:31:13.759Z,101214.22
2023-02-27T17:34:22.012Z,101209.28
2023-02-27T17:37:29.509Z,101220.31
2023-02-27T17:40:38.022Z,101220.88
2023-02-27T17:43:42.654Z,101223.09
2023-02-27T17:46:49.970Z,101220.63
2023-02-27T17:49:56.483Z,101220.66
2023-02-27T17:53:05.214Z,101223.94
2023-02-27T17:56:13.097Z,101228.47
2023-02-27T17:59:20.837Z,101233.47
2023-02-27T18:02:30.702Z,101236.69
2023-02-27T18:05:36.524Z,101239.56
2023-02-27T18:08:49.754Z,101238.06
2023-02-27T18:11:57.371Z,101244.28
2023-02-27T18:15:01.176Z,101250.87
2023-02-27T18:18:13.203Z,101248.91
2023-02-27T18:21:23.161Z,101262.81
2023-02-27T18:24:29.105Z,101279.53
2023-02-27T18:27:37.768Z,101287.06
2023-02-27T18:30:44.521Z,101279.62
2023-02-27T18:33:51.212Z,101280.41
2023-02-27T18:37:00.380Z,101284.66
2023-02-27T18:40:08.440Z,101284.41
2023-02-27T18:43:15.054Z,101277.06
2023-02-27T18:46:20.860Z,101275.81
2023-02-27T18:49:26.653Z,101281.63
2023-02-27T18:52:31.904Z,101291.88
2023-02-27T18:55:41.906Z,101291.06
2023-02-27T18:58:50.024Z,101290.53
2023-02-27T19:01:57.598Z,101294.97
2023-02-27T19:05:05.447Z,101304.91
2023-02-27T19:08:14.118Z,101315.00
2023-02-27T19:11:34.076Z,101320.47
2023-02-27T19:14:43.458Z,101325.19
2023-02-27T19:17:51.773Z,101334.13
2023-02-27T19:20:58.011Z,101344.41
2023-02-27T19:24:05.819Z,101344.81
2023-02-27T19:27:13.341Z,101346.34
2023-02-27T19:30:19.309Z,101357.41
2023-02-27T19:33:28.999Z,101369.00
2023-02-27T19:36:36.058Z,101373.66
2023-02-27T19:39:43.116Z,101385.63
2023-02-27T19:42:51.309Z,101383.09
2023-02-27T19:46:02.041Z,101377.50
2023-02-27T19:49:11.082Z,101381.72
2023-02-27T19:52:19.837Z,101377.81
2023-02-27T19:55:26.630Z,101376.41
2023-02-27T19:58:34.854Z,101370.00
2023-02-27T20:01:41.453Z,101382.13
2023-02-27T20:04:51.768Z,101393.97
2023-02-27T20:07:58.600Z,101390.16
2023-02-27T20:11:05.669Z,101390.38
2023-02-27T20:14:14.773Z,101412.16
2023-02-27T20:17:21.889Z,101413.25
2023-02-27T20:20:31.127Z,101422.38
2023-02-27T20:23:39.911Z,101422.44
2023-02-27T20:26:47.685Z,101436.75
2023-02-27T20:29:58.334Z,101428.75
2023-02-27T20:33:05.678Z,101433.28
2023-02-27T20:36:15.998Z,101422.91
2023-02-27T20:39:24.909Z,101436.97
2023-02-27T20:42:31.676Z,101430.09
2023-02-27T20:45:38.975Z,101427.28
2023-02-27T20:48:46.008Z,101443.34
2023-02-27T20:51:52.393Z,101444.69
2023-02-27T20:55:00.147Z,101454.75
2023-02-27T20:58:07.698Z,101459.31
2023-02-27T21:01:16.419Z,101463.13
2023-02-27T21:04:23.838Z,101449.16
2023-02-27T21:07:29.905Z,101459.63
2023-02-27T21:10:34.412Z,101460.19
2023-02-27T21:13:48.533Z,101455.25
2023-02-27T21:16:52.872Z,101465.75
2023-02-27T21:19:57.923Z,101466.88
2023-02-27T21:27:09.378Z,101462.09
2023-02-27T21:30:16.078Z,101470.66
2023-02-27T21:33:23.687Z,101477.50
2023-02-27T21:36:31.957Z,101486.66
2023-02-27T21:39:39.176Z,101472.09
2023-02-27T21:42:45.304Z,101463.56
2023-02-27T21:45:53.747Z,101457.13
2023-02-27T21:49:02.347Z,101465.59
2023-02-27T21:52:12.868Z,101474.19
2023-02-27T21:55:21.433Z,101467.22
2023-02-27T21:58:26.349Z,101484.34
2023-02-27T22:01:34.896Z,101484.19
2023-02-27T22:04:40.344Z,101483.56
2023-02-27T22:07:45.499Z,101481.09
2023-02-27T22:10:57.053Z,101462.84
2023-02-27T22:14:04.274Z,101459.63
2023-02-27T22:17:17.899Z,101467.59
2023-02-27T22:20:24.575Z,101466.66
2023-02-27T22:23:33.812Z,101465.38
2023-02-27T22:26:45.829Z,101466.00
2023-02-27T22:29:58.059Z,101463.06
2023-02-27T22:33:06.367Z,101472.03
2023-02-27T22:36:25.996Z,101457.81
2023-02-27T22:39:34.247Z,101457.34
2023-02-27T22:42:42.202Z,101451.50
2023-02-27T22:45:50.263Z,101461.09
2023-02-27T22:48:58.979Z,101463.50
2023-02-27T22:52:05.518Z,101464.41
2023-02-27T22:55:16.468Z,101471.31
2023-02-27T22:58:24.406Z,101471.09
2023-02-27T23:01:34.676Z,101470.47
2023-02-27T23:04:43.710Z,101472.28
2023-02-27T23:07:53.138Z,101489.19
2023-02-27T23:11:01.713Z,101476.31
2023-02-27T23:14:11.213Z,101475.59
2023-02-27T23:17:19.337Z,101487.22
2023-02-27T23:20:27.357Z,101484.75
2023-02-27T23:23:33.759Z,101487.53
2023-02-27T23:26:45.145Z,101488.34
2023-02-27T23:29:54.746Z,101484.69
2023-02-27T23:33:03.780Z,101485.53
2023-02-27T23:36:10.282Z,101480.25
2023-02-27T23:39:20.937Z,101474.19
2023-02-27T23:42:34.006Z,101483.88
2023-02-27T23:45:43.144Z,101481.72
2023-02-27T23:48:51.807Z,101483.25
2023-02-27T23:52:00.605Z,101496.19
2023-02-27T23:55:11.631Z,101498.63
2023-02-27T23:58:19.345Z,101490.81
